createdAt,value
2024-02-11T00:00:36.369Z,35.60
2024-02-11T00:01:59.944Z,39.00
2024-02-11T00:03:03.242Z,40.30
2024-02-11T00:04:06.722Z,41.80
2024-02-11T00:05:10.627Z,40.50
2024-02-11T00:06:15.448Z,40.40
2024-02-11T00:07:18.846Z,40.90
2024-02-11T00:08:21.676Z,41.40
2024-02-11T00:09:25.272Z,39.00
2024-02-11T00:10:28.235Z,40.10
2024-02-11T00:11:31.328Z,40.90
2024-02-11T00:12:34.259Z,41.90
2024-02-11T00:13:37.343Z,39.70
2024-02-11T00:14:40.490Z,41.00
2024-02-11T00:15:45.046Z,40.90
2024-02-11T00:16:48.962Z,39.00
2024-02-11T00:17:52.058Z,41.60
2024-02-11T00:18:55.097Z,42.70
2024-02-11T00:19:58.194Z,39.70
2024-02-11T00:21:02.918Z,41.10
2024-02-11T00:22:05.930Z,41.20
2024-02-11T00:23:08.932Z,42.20
2024-02-11T00:24:11.972Z,40.00
2024-02-11T00:25:15.888Z,40.90
2024-02-11T00:26:18.746Z,41.00
2024-02-11T00:27:24.626Z,41.40
2024-02-11T00:28:27.886Z,37.40
2024-02-11T00:29:30.799Z,39.50
2024-02-11T00:30:33.817Z,40.30
2024-02-11T00:31:39.275Z,36.50
2024-02-11T00:32:42.216Z,38.30
2024-02-11T00:33:46.105Z,39.30
2024-02-11T00:34:49.043Z,40.70
2024-02-11T00:35:52.634Z,41.50
2024-02-11T00:36:55.723Z,41.50
2024-02-11T00:38:00.268Z,41.70
2024-02-11T00:39:06.671Z,42.60
2024-02-11T00:40:11.290Z,41.60
2024-02-11T00:41:14.295Z,40.60
2024-02-11T00:42:20.936Z,41.50
2024-02-11T00:43:23.909Z,41.30
2024-02-11T00:44:26.849Z,39.60
2024-02-11T00:45:30.372Z,37.30
2024-02-11T00:46:33.272Z,39.80
2024-02-11T00:47:37.380Z,38.10
2024-02-11T00:48:40.486Z,39.70
2024-02-11T00:49:45.231Z,38.20
2024-02-11T00:50:49.684Z,38.10
2024-02-11T00:51:52.509Z,38.30
2024-02-11T00:52:55.460Z,39.30
2024-02-11T00:53:58.795Z,40.10
2024-02-11T00:55:01.791Z,40.00
2024-02-11T00:56:05.011Z,40.00
2024-02-11T00:57:08.642Z,40.40
2024-02-11T00:58:11.778Z,37.90
2024-02-11T00:59:16.211Z,40.10
2024-02-11T01:00:19.679Z,37.10
2024-02-11T01:01:23.775Z,37.50
2024-02-11T01:02:26.764Z,38.80
2024-02-11T01:03:30.794Z,37.50
2024-02-11T01:04:33.953Z,38.20
2024-02-11T01:05:37.684Z,39.50
2024-02-11T01:06:40.620Z,39.70
2024-02-11T01:07:43.720Z,38.00
2024-02-11T01:08:47.886Z,41.20
2024-02-11T01:09:50.815Z,39.80
2024-02-11T01:10:53.859Z,39.60
2024-02-11T01:11:59.116Z,38.70
2024-02-11T01:13:02.218Z,39.20
2024-02-11T01:14:06.345Z,37.70
2024-02-11T01:15:14.726Z,39.80
2024-02-11T01:16:17.811Z,39.40
2024-02-11T01:17:21.197Z,41.10
2024-02-11T01:18:24.168Z,37.90
2024-02-11T01:19:27.273Z,40.70
2024-02-11T01:20:30.469Z,37.70
2024-02-11T01:21:33.613Z,37.20
2024-02-11T01:22:36.978Z,39.90
2024-02-11T01:23:39.858Z,38.90
2024-02-11T01:24:42.995Z,38.30
2024-02-11T01:25:46.221Z,38.20
2024-02-11T01:26:50.532Z,38.80
2024-02-11T01:27:53.709Z,36.70
2024-02-11T01:28:56.700Z,38.60
2024-02-11T01:30:00.064Z,38.90
2024-02-11T01:31:03.223Z,37.20
2024-02-11T01:32:06.660Z,38.10
2024-02-11T01:33:10.562Z,40.90
2024-02-11T01:34:13.647Z,38.00
2024-02-11T01:35:16.770Z,38.80
2024-02-11T01:36:19.671Z,38.00
2024-02-11T01:37:22.748Z,39.40
2024-02-11T01:38:25.654Z,38.20
2024-02-11T01:39:28.767Z,38.60
2024-02-11T01:40:32.780Z,37.90
2024-02-11T01:41:35.668Z,39.50
2024-02-11T01:42:40.365Z,37.30
2024-02-11T01:43:43.357Z,39.30
2024-02-11T01:44:46.331Z,39.00
2024-02-11T01:45:49.621Z,40.50
2024-02-11T01:46:52.698Z,38.40
2024-02-11T01:47:55.688Z,39.10
2024-02-11T01:49:06.243Z,38.80
2024-02-11T01:50:15.198Z,38.50
2024-02-11T01:51:18.793Z,39.90
2024-02-11T01:52:21.781Z,38.60
2024-02-11T01:53:28.211Z,38.90
2024-02-11T01:54:31.501Z,36.50
2024-02-11T01:55:35.816Z,37.90
2024-02-11T01:56:40.036Z,35.20
2024-02-11T01:57:43.927Z,34.10
2024-02-11T01:58:49.359Z,35.50
2024-02-11T01:59:52.289Z,34.70
2024-02-11T02:00:56.460Z,35.40
2024-02-11T02:02:00.071Z,35.70
2024-02-11T02:03:05.312Z,35.70
2024-02-11T02:04:08.530Z,35.00
2024-02-11T02:05:11.792Z,34.80
2024-02-11T02:06:18.163Z,35.40
2024-02-11T02:07:21.704Z,33.90
2024-02-11T02:08:24.938Z,35.90
2024-02-11T02:09:27.963Z,35.00
2024-02-11T02:10:31.806Z,33.30
2024-02-11T02:11:36.430Z,35.60
2024-02-11T02:12:41.929Z,33.90
2024-02-11T02:13:45.042Z,34.10
2024-02-11T02:14:51.568Z,32.60
2024-02-11T02:15:54.493Z,33.40
2024-02-11T02:16:58.011Z,33.10
2024-02-11T02:18:01.156Z,31.30
2024-02-11T02:19:04.877Z,33.10
2024-02-11T02:20:08.941Z,34.00
2024-02-11T02:21:12.189Z,32.50
2024-02-11T02:22:15.108Z,33.20
2024-02-11T02:23:18.256Z,33.60
2024-02-11T02:24:21.901Z,33.00
2024-02-11T02:25:25.522Z,30.40
2024-02-11T02:26:28.466Z,31.30
2024-02-11T02:27:31.351Z,28.90
2024-02-11T02:28:38.460Z,30.50
2024-02-11T02:29:41.428Z,32.00
2024-02-11T02:32:35.953Z,31.80
2024-02-11T02:33:39.470Z,30.30
2024-02-11T02:34:44.620Z,32.30
2024-02-11T02:35:47.736Z,31.50
2024-02-11T02:36:51.982Z,30.50
2024-02-11T02:37:55.507Z,30.40
2024-02-11T02:38:58.831Z,31.20
2024-02-11T02:40:02.047Z,29.80
2024-02-11T02:41:05.152Z,29.30
2024-02-11T02:42:08.286Z,30.20
2024-02-11T02:43:13.207Z,28.20
2024-02-11T02:44:16.539Z,28.40
2024-02-11T02:45:19.755Z,28.60
2024-02-11T02:46:22.888Z,28.10
2024-02-11T02:47:25.881Z,30.50
2024-02-11T02:48:30.279Z,29.30
2024-02-11T02:49:33.640Z,28.70
2024-02-11T02:50:36.894Z,29.50
2024-02-11T02:51:42.749Z,27.80
2024-02-11T02:52:45.833Z,27.70
2024-02-11T02:53:50.539Z,28.40
2024-02-11T02:54:53.518Z,27.80
2024-02-11T02:55:57.742Z,27.70
2024-02-11T02:57:00.796Z,28.70
2024-02-11T02:58:08.715Z,26.70
2024-02-11T02:59:11.958Z,26.60
2024-02-11T03:00:18.097Z,26.80
2024-02-11T03:01:27.296Z,27.20
2024-02-11T03:02:30.337Z,27.30
2024-02-11T03:03:33.696Z,29.00
2024-02-11T03:04:39.548Z,30.20
2024-02-11T03:05:45.327Z,27.80
2024-02-11T03:06:48.773Z,28.00
2024-02-11T03:07:53.692Z,27.90
2024-02-11T03:08:57.406Z,29.50
2024-02-11T03:10:02.149Z,28.50
2024-02-11T03:11:05.155Z,29.80
2024-02-11T03:12:08.386Z,30.50
2024-02-11T03:13:11.288Z,30.60
2024-02-11T03:14:14.219Z,31.50
2024-02-11T03:15:17.634Z,29.20
2024-02-11T03:16:20.685Z,31.40
2024-02-11T03:17:24.195Z,30.60
2024-02-11T03:18:27.286Z,32.50
2024-02-11T03:19:30.188Z,31.10
2024-02-11T03:20:35.282Z,31.40
2024-02-11T03:21:40.009Z,31.30
2024-02-11T03:22:44.209Z,32.80
2024-02-11T03:23:47.202Z,33.60
2024-02-11T03:24:50.129Z,31.70
2024-02-11T03:25:53.241Z,30.70
2024-02-11T03:26:58.021Z,32.10
2024-02-11T03:28:01.065Z,33.20
2024-02-11T03:29:04.848Z,31.70
2024-02-11T03:30:09.301Z,32.10
2024-02-11T03:31:12.346Z,30.60
2024-02-11T03:32:15.312Z,33.20
2024-02-11T03:33:18.193Z,33.40
2024-02-11T03:34:21.216Z,32.00
2024-02-11T03:35:24.671Z,33.50
2024-02-11T03:36:28.246Z,31.80
2024-02-11T03:37:35.063Z,33.40
2024-02-11T03:38:38.050Z,31.20
2024-02-11T03:39:41.000Z,32.40
2024-02-11T03:40:43.976Z,32.30
2024-02-11T03:41:47.660Z,32.30
2024-02-11T03:42:51.937Z,32.30
2024-02-11T03:43:55.074Z,32.00
2024-02-11T03:44:58.012Z,32.60
2024-02-11T03:46:01.914Z,30.90
2024-02-11T03:47:05.547Z,32.20
2024-02-11T03:48:09.016Z,30.60
2024-02-11T03:49:12.172Z,30.90
2024-02-11T03:50:16.103Z,31.60
2024-02-11T03:51:19.334Z,30.80
2024-02-11T03:52:22.261Z,31.70
2024-02-11T03:53:25.736Z,31.80
2024-02-11T03:54:29.434Z,31.40
2024-02-11T03:55:32.751Z,32.40
2024-02-11T03:56:40.966Z,31.60
2024-02-11T03:57:44.007Z,31.30
2024-02-11T03:58:46.975Z,30.90
2024-02-11T03:59:50.308Z,31.80
2024-02-11T04:00:53.393Z,31.90
2024-02-11T04:01:57.166Z,30.30
2024-02-11T04:03:00.977Z,31.70
2024-02-11T04:04:04.556Z,32.30
2024-02-11T04:05:08.122Z,31.50
2024-02-11T04:06:13.226Z,31.10
2024-02-11T04:07:17.014Z,33.30
2024-02-11T04:08:20.197Z,33.80
2024-02-11T04:09:29.725Z,32.30
2024-02-11T04:10:37.890Z,31.50
2024-02-11T04:11:43.158Z,31.10
2024-02-11T04:12:55.995Z,31.90
2024-02-11T04:14:00.447Z,30.10
2024-02-11T04:15:04.017Z,31.80
2024-02-11T04:16:12.258Z,32.80
2024-02-11T04:17:15.985Z,32.20
2024-02-11T04:18:22.559Z,33.70
2024-02-11T04:19:26.798Z,31.40
2024-02-11T04:20:30.263Z,31.40
2024-02-11T04:21:36.538Z,32.60
2024-02-11T04:22:39.673Z,31.70
2024-02-11T04:23:47.920Z,33.20
2024-02-11T04:24:50.971Z,32.40
2024-02-11T04:25:54.259Z,31.90
2024-02-11T04:26:58.617Z,31.00
2024-02-11T04:28:12.361Z,31.40
2024-02-11T04:29:15.839Z,30.50
2024-02-11T04:30:22.286Z,34.40
2024-02-11T04:31:27.051Z,36.00
2024-02-11T04:32:30.128Z,33.00
2024-02-11T04:33:33.037Z,33.00
2024-02-11T04:34:36.058Z,31.30
2024-02-11T04:35:40.791Z,32.80
2024-02-11T04:36:43.736Z,32.80
2024-02-11T04:37:50.793Z,34.20
2024-02-11T04:38:53.947Z,32.60
2024-02-11T04:39:56.947Z,32.80
2024-02-11T04:41:02.398Z,31.70
2024-02-11T04:42:05.843Z,31.10
2024-02-11T04:43:08.980Z,34.00
2024-02-11T04:44:12.790Z,31.50
2024-02-11T04:45:17.236Z,33.20
2024-02-11T04:46:20.802Z,33.20
2024-02-11T04:47:24.959Z,32.30
2024-02-11T04:48:28.094Z,31.80
2024-02-11T04:49:31.106Z,32.80
2024-02-11T04:50:36.320Z,32.30
2024-02-11T04:51:40.620Z,32.50
2024-02-11T04:52:50.022Z,31.00
2024-02-11T04:53:54.319Z,30.20
2024-02-11T04:54:58.089Z,31.50
2024-02-11T04:56:01.230Z,31.50
2024-02-11T04:57:05.077Z,30.80
2024-02-11T04:58:15.437Z,31.10
2024-02-11T05:00:25.472Z,31.30
2024-02-11T05:01:28.820Z,31.60
2024-02-11T05:02:31.740Z,31.50
2024-02-11T05:03:34.816Z,32.60
2024-02-11T05:04:37.760Z,32.40
2024-02-11T05:05:42.715Z,33.60
2024-02-11T05:06:47.692Z,29.60
2024-02-11T05:07:50.755Z,31.00
2024-02-11T05:08:56.723Z,33.50
2024-02-11T05:10:00.335Z,31.20
2024-02-11T05:11:03.893Z,30.50
2024-02-11T05:12:09.634Z,30.40
2024-02-11T05:13:15.080Z,30.10
2024-02-11T05:14:18.348Z,30.60
2024-02-11T05:15:21.812Z,31.10
2024-02-11T05:16:29.375Z,31.10
2024-02-11T05:17:36.534Z,29.80
2024-02-11T05:18:40.088Z,33.20
2024-02-11T05:19:47.102Z,31.00
2024-02-11T05:20:50.306Z,32.00
2024-02-11T05:21:53.534Z,29.90
2024-02-11T05:22:59.747Z,29.10
2024-02-11T05:24:03.188Z,31.20
2024-02-11T05:25:06.389Z,31.70
2024-02-11T05:26:13.746Z,30.20
2024-02-11T05:27:16.811Z,30.50
2024-02-11T05:28:21.029Z,28.40
2024-02-11T05:29:25.431Z,31.70
2024-02-11T05:30:30.349Z,30.00
2024-02-11T05:31:33.322Z,28.60
2024-02-11T05:32:36.900Z,30.90
2024-02-11T05:33:40.242Z,29.70
2024-02-11T05:34:43.526Z,32.00
2024-02-11T05:35:47.843Z,29.70
2024-02-11T05:36:51.277Z,28.60
2024-02-11T05:38:00.658Z,30.40
2024-02-11T05:39:04.216Z,29.30
2024-02-11T05:40:11.510Z,30.10
2024-02-11T05:41:14.558Z,30.00
2024-02-11T05:42:18.584Z,32.10
2024-02-11T05:43:22.081Z,31.80
2024-02-11T05:44:25.328Z,31.20
2024-02-11T05:45:29.240Z,32.00
2024-02-11T05:46:32.198Z,31.40
2024-02-11T05:47:35.120Z,32.00
2024-02-11T05:48:38.754Z,31.40
2024-02-11T05:49:43.188Z,33.20
2024-02-11T05:50:47.692Z,32.20
2024-02-11T05:51:50.913Z,31.40
2024-02-11T05:52:55.519Z,30.50
2024-02-11T05:53:58.468Z,30.20
2024-02-11T05:55:02.047Z,30.40
2024-02-11T05:56:06.411Z,30.80
2024-02-11T05:57:11.055Z,28.00
2024-02-11T05:58:14.746Z,28.10
2024-02-11T05:59:18.791Z,28.60
2024-02-11T06:00:27.016Z,30.10
2024-02-11T06:01:30.037Z,27.80
2024-02-11T06:02:32.987Z,28.30
2024-02-11T06:03:37.514Z,27.20
2024-02-11T06:04:40.677Z,29.10
2024-02-11T06:05:43.921Z,28.10
2024-02-11T06:06:47.483Z,28.00
2024-02-11T06:07:56.129Z,26.80
2024-02-11T06:08:59.302Z,29.40
2024-02-11T06:10:02.610Z,27.90
2024-02-11T06:11:05.556Z,27.90
2024-02-11T06:12:09.756Z,27.30
2024-02-11T06:13:13.516Z,27.20
2024-02-11T06:14:16.662Z,27.30
2024-02-11T06:15:23.663Z,28.30
2024-02-11T06:16:26.710Z,27.00
2024-02-11T06:17:30.383Z,27.60
2024-02-11T06:18:33.433Z,27.40
2024-02-11T06:19:39.103Z,26.80
2024-02-11T06:20:42.416Z,27.90
2024-02-11T06:21:45.925Z,27.40
2024-02-11T06:22:56.325Z,27.20
2024-02-11T06:23:59.332Z,27.80
2024-02-11T06:25:02.781Z,26.80
2024-02-11T06:26:05.936Z,28.00
2024-02-11T06:27:10.491Z,29.90
2024-02-11T06:28:13.542Z,30.10
2024-02-11T06:29:16.725Z,31.50
2024-02-11T06:30:21.150Z,32.60
2024-02-11T06:31:24.457Z,30.70
2024-02-11T06:32:28.112Z,33.80
2024-02-11T06:33:31.300Z,34.00
2024-02-11T06:34:36.149Z,32.60
2024-02-11T06:35:41.019Z,32.70
2024-02-11T06:36:44.166Z,30.90
2024-02-11T06:37:50.014Z,32.40
2024-02-11T06:38:53.743Z,32.00
2024-02-11T06:39:56.892Z,32.20
2024-02-11T06:40:59.848Z,31.20
2024-02-11T06:42:04.342Z,32.60
2024-02-11T06:43:13.198Z,34.20
2024-02-11T06:44:17.824Z,32.80
2024-02-11T06:45:21.445Z,32.40
2024-02-11T06:46:24.455Z,32.40
2024-02-11T06:47:28.133Z,33.40
2024-02-11T06:48:31.221Z,33.10
2024-02-11T06:49:34.846Z,33.80
2024-02-11T06:50:37.844Z,32.10
2024-02-11T06:51:40.773Z,31.50
2024-02-11T06:52:44.871Z,30.90
2024-02-11T06:53:48.082Z,29.40
2024-02-11T06:54:51.466Z,28.20
2024-02-11T06:55:54.601Z,27.00
2024-02-11T06:56:57.791Z,26.40
2024-02-11T06:58:00.705Z,25.40
2024-02-11T06:59:05.113Z,26.30
2024-02-11T07:00:10.543Z,26.80
2024-02-11T07:01:14.335Z,24.50
2024-02-11T07:02:17.389Z,23.90
2024-02-11T07:03:20.928Z,23.20
2024-02-11T07:04:24.745Z,22.50
2024-02-11T07:05:28.010Z,23.90
2024-02-11T07:06:31.613Z,21.60
2024-02-11T07:07:35.006Z,22.50
2024-02-11T07:08:38.184Z,21.60
2024-02-11T07:09:42.339Z,23.10
2024-02-11T07:10:45.606Z,21.70
2024-02-11T07:11:50.259Z,21.40
2024-02-11T07:12:53.553Z,21.00
2024-02-11T07:13:56.454Z,22.30
2024-02-11T07:14:59.354Z,22.50
2024-02-11T07:16:02.474Z,21.80
2024-02-11T07:17:05.445Z,20.60
2024-02-11T07:18:10.056Z,21.10
2024-02-11T07:19:13.766Z,20.70
2024-02-11T07:20:17.717Z,22.50
2024-02-11T07:21:22.884Z,22.00
2024-02-11T07:22:28.791Z,21.90
2024-02-11T07:23:33.328Z,22.00
2024-02-11T07:24:40.729Z,21.30
2024-02-11T07:25:43.785Z,21.50
2024-02-11T07:26:50.403Z,22.10
2024-02-11T07:27:53.263Z,21.20
2024-02-11T07:28:56.320Z,21.10
2024-02-11T07:29:59.376Z,21.90
2024-02-11T07:31:02.360Z,23.20
2024-02-11T07:32:05.585Z,21.90
2024-02-11T07:33:09.189Z,21.50
2024-02-11T07:34:12.409Z,21.30
2024-02-11T07:35:17.723Z,22.70
2024-02-11T07:36:23.884Z,21.50
2024-02-11T07:37:26.978Z,21.50
2024-02-11T07:38:31.931Z,21.20
2024-02-11T07:39:34.933Z,22.00
2024-02-11T07:40:38.241Z,20.50
2024-02-11T07:41:42.420Z,21.20
2024-02-11T07:42:47.402Z,21.70
2024-02-11T07:43:51.076Z,20.00
2024-02-11T07:44:54.018Z,20.70
2024-02-11T07:45:59.177Z,19.80
2024-02-11T07:47:03.442Z,19.90
2024-02-11T07:48:09.075Z,20.40
2024-02-11T07:49:14.498Z,20.20
2024-02-11T07:50:18.923Z,18.90
2024-02-11T07:51:23.851Z,20.10
2024-02-11T07:52:26.773Z,20.30
2024-02-11T07:53:29.762Z,21.00
2024-02-11T07:54:33.807Z,20.00
2024-02-11T07:55:36.967Z,19.80
2024-02-11T07:56:40.203Z,20.40
2024-02-11T07:57:43.095Z,18.50
2024-02-11T07:58:46.251Z,20.70
2024-02-11T07:59:49.332Z,20.00
2024-02-11T08:00:52.388Z,20.10
2024-02-11T08:01:57.013Z,22.60
2024-02-11T08:03:00.210Z,21.10
2024-02-11T08:04:03.270Z,20.10
2024-02-11T08:05:07.846Z,21.60
2024-02-11T08:06:11.141Z,19.60
2024-02-11T08:07:14.464Z,20.50
2024-02-11T08:08:17.341Z,18.90
2024-02-11T08:09:20.291Z,20.20
2024-02-11T08:10:23.437Z,20.20
2024-02-11T08:11:26.400Z,19.90
2024-02-11T08:12:29.562Z,19.70
2024-02-11T08:13:34.007Z,20.40
2024-02-11T08:14:39.897Z,20.40
2024-02-11T08:15:42.867Z,19.70
2024-02-11T08:16:47.204Z,20.20
2024-02-11T08:17:50.349Z,20.00
2024-02-11T08:18:55.962Z,20.20
2024-02-11T08:19:59.169Z,20.30
2024-02-11T08:21:03.814Z,19.70
2024-02-11T08:22:08.140Z,19.30
2024-02-11T08:23:11.365Z,18.00
2024-02-11T08:24:14.302Z,19.70
2024-02-11T08:25:17.751Z,19.10
2024-02-11T08:26:21.992Z,19.60
2024-02-11T08:27:25.054Z,20.60
2024-02-11T08:28:28.060Z,21.30
2024-02-11T08:29:30.962Z,21.20
2024-02-11T08:30:34.015Z,22.00
2024-02-11T08:31:36.931Z,21.10
2024-02-11T08:32:40.312Z,20.20
2024-02-11T08:33:47.305Z,21.50
2024-02-11T08:34:51.302Z,20.50
2024-02-11T08:35:54.227Z,19.50
2024-02-11T08:36:57.097Z,19.70
2024-02-11T08:37:59.983Z,20.40
2024-02-11T08:39:03.965Z,20.00
2024-02-11T08:40:08.718Z,19.80
2024-02-11T08:41:11.880Z,19.40
2024-02-11T08:42:15.559Z,19.80
2024-02-11T08:43:20.614Z,17.60
2024-02-11T08:44:25.335Z,18.50
2024-02-11T08:45:28.388Z,19.20
2024-02-11T08:46:31.432Z,18.00
2024-02-11T08:47:36.085Z,19.60
2024-02-11T08:48:39.238Z,18.50
2024-02-11T08:49:42.376Z,18.90
2024-02-11T08:50:45.519Z,19.40
2024-02-11T08:51:48.981Z,19.10
2024-02-11T08:52:51.952Z,18.90
2024-02-11T08:53:54.795Z,19.70
2024-02-11T08:54:57.686Z,18.30
2024-02-11T08:56:01.200Z,19.20
2024-02-11T08:57:04.470Z,17.70
2024-02-11T08:58:07.476Z,17.80
2024-02-11T08:59:14.467Z,18.70
2024-02-11T09:00:19.564Z,18.70
2024-02-11T09:01:22.539Z,19.80
2024-02-11T09:02:32.082Z,19.90
2024-02-11T09:03:38.802Z,19.60
2024-02-11T09:04:42.880Z,20.10
2024-02-11T09:05:46.795Z,19.90
2024-02-11T09:06:51.272Z,20.90
2024-02-11T09:07:54.304Z,19.60
2024-02-11T09:08:57.514Z,18.80
2024-02-11T09:10:00.865Z,20.50
2024-02-11T09:11:08.016Z,19.70
2024-02-11T09:12:12.152Z,22.40
2024-02-11T09:13:15.036Z,22.10
2024-02-11T09:14:18.413Z,20.40
2024-02-11T09:15:21.475Z,20.90
2024-02-11T09:16:27.579Z,20.20
2024-02-11T09:17:34.086Z,20.30
2024-02-11T09:18:37.750Z,21.40
2024-02-11T09:19:41.000Z,20.30
2024-02-11T09:20:44.574Z,20.20
2024-02-11T09:21:47.779Z,19.40
2024-02-11T09:22:51.273Z,19.70
2024-02-11T09:23:56.364Z,18.70
2024-02-11T09:24:59.662Z,20.10
2024-02-11T09:26:04.039Z,19.50
2024-02-11T09:27:12.171Z,19.90
2024-02-11T09:28:15.196Z,19.30
2024-02-11T09:29:19.151Z,19.30
2024-02-11T09:30:22.384Z,19.80
2024-02-11T09:31:25.820Z,20.50
2024-02-11T09:32:29.462Z,19.10
2024-02-11T09:33:32.813Z,19.90
2024-02-11T09:34:35.868Z,19.90
2024-02-11T09:35:39.232Z,19.30
2024-02-11T09:36:43.302Z,19.10
2024-02-11T09:37:46.512Z,19.10
2024-02-11T09:38:49.621Z,19.20
2024-02-11T09:39:52.517Z,19.40
2024-02-11T09:40:55.559Z,19.70
2024-02-11T09:41:58.481Z,20.10
2024-02-11T09:43:03.048Z,20.10
2024-02-11T09:44:08.006Z,20.80
2024-02-11T09:45:12.103Z,20.40
2024-02-11T09:46:18.467Z,19.60
2024-02-11T09:47:23.375Z,20.50
2024-02-11T09:48:27.469Z,19.10
2024-02-11T09:49:32.572Z,20.00
2024-02-11T09:50:36.391Z,20.90
2024-02-11T09:51:39.490Z,19.90
2024-02-11T09:52:42.460Z,20.90
2024-02-11T09:53:48.050Z,20.10
2024-02-11T09:54:52.122Z,19.00
2024-02-11T09:55:55.660Z,19.90
2024-02-11T09:57:03.826Z,18.70
2024-02-11T09:58:06.972Z,19.70
2024-02-11T09:59:14.725Z,20.90
2024-02-11T10:00:20.011Z,19.10
2024-02-11T10:01:23.156Z,19.60
2024-02-11T10:02:27.026Z,20.70
2024-02-11T10:03:31.850Z,20.00
2024-02-11T10:04:39.307Z,21.70
2024-02-11T10:05:45.090Z,19.10
2024-02-11T10:06:48.436Z,19.10
2024-02-11T10:07:55.726Z,18.60
2024-02-11T10:08:58.757Z,19.20
2024-02-11T10:10:04.240Z,20.40
2024-02-11T10:11:09.249Z,19.70
2024-02-11T10:12:12.353Z,20.40
2024-02-11T10:13:24.881Z,20.70
2024-02-11T10:14:31.045Z,19.70
2024-02-11T10:15:41.873Z,19.70
2024-02-11T10:16:44.822Z,19.50
2024-02-11T10:17:48.938Z,22.00
2024-02-11T10:18:52.293Z,19.80
2024-02-11T10:19:55.601Z,20.90
2024-02-11T10:20:59.192Z,20.60
2024-02-11T10:22:14.532Z,19.70
2024-02-11T10:23:25.512Z,21.40
2024-02-11T10:24:30.761Z,19.90
2024-02-11T10:25:38.121Z,19.40
2024-02-11T10:26:41.775Z,19.30
2024-02-11T10:27:45.798Z,19.70
2024-02-11T10:28:49.900Z,20.60
2024-02-11T10:29:53.035Z,20.30
2024-02-11T10:30:56.653Z,19.50
2024-02-11T10:31:59.621Z,20.10
2024-02-11T10:33:04.176Z,18.70
2024-02-11T10:34:09.969Z,20.90
2024-02-11T10:35:16.239Z,20.40
2024-02-11T10:36:19.950Z,19.70
2024-02-11T10:37:23.062Z,20.30
2024-02-11T10:38:26.672Z,19.20
2024-02-11T10:39:30.290Z,19.40
2024-02-11T10:40:36.663Z,19.90
2024-02-11T10:41:42.692Z,19.00
2024-02-11T10:42:46.757Z,20.10
2024-02-11T10:43:52.916Z,19.50
2024-02-11T10:44:55.962Z,19.20
2024-02-11T10:46:00.374Z,19.20
2024-02-11T10:47:06.115Z,19.50
2024-02-11T10:48:09.088Z,19.20
2024-02-11T10:49:13.041Z,19.70
2024-02-11T10:50:16.102Z,19.90
2024-02-11T10:51:24.876Z,19.30
2024-02-11T10:52:44.771Z,19.00
2024-02-11T10:53:54.174Z,20.50
2024-02-11T10:55:03.355Z,20.10
2024-02-11T10:56:11.058Z,20.70
2024-02-11T10:57:21.358Z,20.00
2024-02-11T10:59:38.920Z,21.00
2024-02-11T11:01:47.168Z,20.30
2024-02-11T11:02:57.303Z,20.00
2024-02-11T11:04:02.129Z,20.40
2024-02-11T11:05:13.196Z,19.50
2024-02-11T11:06:19.752Z,19.60
2024-02-11T11:07:24.654Z,19.80
2024-02-11T11:08:27.890Z,20.70
2024-02-11T11:09:31.617Z,21.40
2024-02-11T11:10:38.760Z,18.80
2024-02-11T11:11:41.782Z,19.30
2024-02-11T11:12:54.896Z,19.00
2024-02-11T11:13:59.376Z,19.00
2024-02-11T11:15:10.138Z,20.40
2024-02-11T11:16:13.081Z,18.10
2024-02-11T11:17:25.437Z,20.30
2024-02-11T11:18:28.642Z,18.30
2024-02-11T11:19:33.657Z,20.20
2024-02-11T11:20:38.604Z,19.60
2024-02-11T11:21:57.218Z,18.90
2024-02-11T11:23:01.633Z,18.10
2024-02-11T11:24:04.913Z,18.70
2024-02-11T11:25:15.288Z,18.70
2024-02-11T11:26:22.596Z,19.90
2024-02-11T11:27:26.433Z,20.10
2024-02-11T11:28:31.612Z,18.70
2024-02-11T11:29:34.604Z,18.80
2024-02-11T11:30:37.559Z,18.80
2024-02-11T11:31:41.105Z,18.80
2024-02-11T11:32:50.396Z,18.20
2024-02-11T11:33:54.129Z,18.10
2024-02-11T11:34:57.831Z,19.80
2024-02-11T11:36:03.196Z,17.80
2024-02-11T11:37:16.830Z,18.80
2024-02-11T11:38:23.407Z,19.00
2024-02-11T11:39:30.181Z,19.70
2024-02-11T11:40:38.504Z,19.30
2024-02-11T11:41:42.310Z,19.40
2024-02-11T11:42:45.450Z,18.50
2024-02-11T11:43:48.521Z,19.20
2024-02-11T11:44:51.385Z,18.90
2024-02-11T11:45:55.706Z,19.20
2024-02-11T11:46:59.363Z,19.10
2024-02-11T11:48:03.464Z,19.60
2024-02-11T11:49:06.878Z,18.60
2024-02-11T11:50:10.749Z,17.70
2024-02-11T11:51:13.950Z,18.10
2024-02-11T11:52:17.534Z,17.80
2024-02-11T11:53:22.273Z,18.40
2024-02-11T11:54:32.384Z,18.10
2024-02-11T11:55:35.377Z,20.40
2024-02-11T11:56:38.753Z,18.00
2024-02-11T11:57:41.902Z,18.90
2024-02-11T11:58:44.858Z,18.80
2024-02-11T11:59:57.137Z,19.20
2024-02-11T12:01:08.847Z,18.50
2024-02-11T12:02:11.974Z,18.00
2024-02-11T12:03:14.922Z,18.70
2024-02-11T12:04:24.136Z,19.50
2024-02-11T12:05:27.410Z,18.40
2024-02-11T12:06:30.597Z,19.20
2024-02-11T12:07:34.682Z,19.00
2024-02-11T12:08:39.241Z,18.20
2024-02-11T12:09:42.570Z,18.40
2024-02-11T12:10:55.242Z,18.50
2024-02-11T12:11:59.283Z,18.70
2024-02-11T12:13:02.390Z,18.90
2024-02-11T12:14:05.454Z,17.60
2024-02-11T12:15:10.986Z,17.60
2024-02-11T12:16:19.235Z,16.80
2024-02-11T12:17:22.504Z,18.40
2024-02-11T12:18:27.367Z,16.80
2024-02-11T12:19:39.847Z,18.50
2024-02-11T12:20:44.951Z,17.60
2024-02-11T12:21:51.208Z,18.00
2024-02-11T12:22:56.114Z,17.30
2024-02-11T12:24:02.097Z,17.10
2024-02-11T12:25:05.566Z,17.30
2024-02-11T12:26:08.935Z,19.10
2024-02-11T12:27:15.618Z,17.70
2024-02-11T12:28:26.312Z,17.40
2024-02-11T12:30:32.186Z,16.90
2024-02-11T12:31:37.069Z,18.10
2024-02-11T12:32:40.053Z,18.00
2024-02-11T12:33:54.100Z,18.00
2024-02-11T12:34:58.225Z,19.70
2024-02-11T12:36:07.302Z,17.60
2024-02-11T12:37:13.036Z,19.00
2024-02-11T12:38:16.131Z,18.20
2024-02-11T12:39:19.807Z,19.10
2024-02-11T12:40:24.436Z,18.30
2024-02-11T12:41:28.332Z,18.50
2024-02-11T12:42:32.327Z,19.40
2024-02-11T12:43:35.863Z,19.20
2024-02-11T12:44:38.763Z,18.10
2024-02-11T12:45:41.686Z,17.60
2024-02-11T12:46:45.476Z,17.60
2024-02-11T12:47:49.078Z,18.30
2024-02-11T12:48:52.414Z,19.20
2024-02-11T12:49:55.585Z,18.50
2024-02-11T12:50:58.699Z,18.90
2024-02-11T12:52:05.074Z,16.90
2024-02-11T12:53:12.561Z,18.90
2024-02-11T12:54:16.537Z,16.80
2024-02-11T12:55:20.929Z,17.50
2024-02-11T12:56:24.518Z,18.40
2024-02-11T12:57:28.433Z,19.20
2024-02-11T12:58:31.303Z,18.50
2024-02-11T12:59:34.374Z,17.40
2024-02-11T13:00:37.340Z,18.80
2024-02-11T13:01:40.407Z,18.10
2024-02-11T13:02:43.961Z,18.30
2024-02-11T13:03:47.769Z,16.90
2024-02-11T13:04:50.860Z,18.80
2024-02-11T13:05:55.098Z,17.80
2024-02-11T13:06:58.418Z,18.50
2024-02-11T13:08:01.451Z,18.40
2024-02-11T13:09:04.513Z,17.10
2024-02-11T13:10:11.766Z,18.10
2024-02-11T13:11:15.803Z,18.20
2024-02-11T13:12:19.261Z,17.40
2024-02-11T13:13:22.149Z,18.20
2024-02-11T13:14:25.232Z,17.70
2024-02-11T13:15:28.499Z,18.40
2024-02-11T13:16:33.655Z,17.90
2024-02-11T13:17:37.712Z,17.60
2024-02-11T13:18:40.907Z,17.90
2024-02-11T13:19:44.129Z,18.80
2024-02-11T13:20:47.374Z,18.60
2024-02-11T13:21:52.889Z,18.30
2024-02-11T13:22:56.268Z,17.70
2024-02-11T13:23:59.166Z,19.10
2024-02-11T13:25:02.476Z,18.60
2024-02-11T13:26:05.915Z,17.00
2024-02-11T13:27:09.030Z,18.70
2024-02-11T13:28:11.964Z,18.50
2024-02-11T13:29:14.915Z,19.20
2024-02-11T13:30:18.961Z,19.40
2024-02-11T13:31:26.826Z,20.50
2024-02-11T13:32:30.690Z,20.50
2024-02-11T13:33:34.078Z,19.20
2024-02-11T13:34:37.408Z,20.60
2024-02-11T13:35:40.735Z,19.70
2024-02-11T13:36:45.184Z,20.30
2024-02-11T13:37:48.188Z,21.50
2024-02-11T13:38:51.979Z,20.80
2024-02-11T13:39:57.879Z,20.50
2024-02-11T13:41:01.356Z,20.40
2024-02-11T13:42:06.146Z,20.00
2024-02-11T13:43:09.057Z,20.00
2024-02-11T13:44:12.096Z,21.00
2024-02-11T13:45:15.396Z,18.90
2024-02-11T13:46:18.420Z,20.70
2024-02-11T13:47:21.717Z,20.90
2024-02-11T13:48:24.694Z,21.10
2024-02-11T13:49:27.639Z,21.60
2024-02-11T13:50:31.007Z,20.70
2024-02-11T13:51:34.131Z,20.80
2024-02-11T13:52:37.577Z,20.70
2024-02-11T13:53:40.737Z,21.10
2024-02-11T13:54:43.792Z,21.20